sensor_id;sensor_type;location;lat;lon;timestamp;pressure;altitude;pressure_sealevel;temperature;humidity
69751;BME280;57335;52.288;6.056;2023-02-04T00:00:16;103214.28;;;6.73;96.87
69751;BME280;57335;52.288;6.056;2023-02-04T00:02:42;103193.69;;;6.58;96.81
69751;BME280;57335;52.288;6.056;2023-02-04T00:05:12;103204.13;;;6.58;96.96
69751;BME280;57335;52.288;6.056;2023-02-04T00:07:39;103218.44;;;6.64;97.14
69751;BME280;57335;52.288;6.056;2023-02-04T00:10:07;103220.34;;;6.62;97.46
69751;BME280;57335;52.288;6.056;2023-02-04T00:12:34;103219.53;;;6.62;97.60
69751;BME280;57335;52.288;6.056;2023-02-04T00:15:01;103216.22;;;6.59;97.70
69751;BME280;57335;52.288;6.056;2023-02-04T00:17:27;103215.38;;;6.59;97.54
69751;BME280;57335;52.288;6.056;2023-02-04T00:19:53;103209.69;;;6.54;98.00
69751;BME280;57335;52.288;6.056;2023-02-04T00:22:20;103212.16;;;6.55;97.92
69751;BME280;57335;52.288;6.056;2023-02-04T00:24:46;103220.56;;;6.59;97.80
69751;BME280;57335;52.288;6.056;2023-02-04T00:27:13;103226.63;;;6.59;97.61
69751;BME280;57335;52.288;6.056;2023-02-04T00:29:39;103229.09;;;6.61;97.67
69751;BME280;57335;52.288;6.056;2023-02-04T00:32:06;103214.66;;;6.57;97.79
69751;BME280;57335;52.288;6.056;2023-02-04T00:34:32;103222.38;;;6.58;97.55
69751;BME280;57335;52.288;6.056;2023-02-04T00:36:59;103216.44;;;6.56;97.84
69751;BME280;57335;52.288;6.056;2023-02-04T00:39:25;103230.78;;;6.62;97.98
69751;BME280;57335;52.288;6.056;2023-02-04T00:41:51;103235.16;;;6.62;97.82
69751;BME280;57335;52.288;6.056;2023-02-04T00:44:18;103227.69;;;6.57;97.94
69751;BME280;57335;52.288;6.056;2023-02-04T00:46:44;103228.53;;;6.57;98.00
69751;BME280;57335;52.288;6.056;2023-02-04T00:49:10;103230.19;;;6.58;97.83
69751;BME280;57335;52.288;6.056;2023-02-04T00:51:38;103232.91;;;6.57;97.94
69751;BME280;57335;52.288;6.056;2023-02-04T00:54:05;103241.78;;;6.54;98.36
69751;BME280;57335;52.288;6.056;2023-02-04T00:56:32;103238.22;;;6.55;98.26
69751;BME280;57335;52.288;6.056;2023-02-04T00:58:59;103240.59;;;6.58;98.33
69751;BME280;57335;52.288;6.056;2023-02-04T01:01:25;103244.63;;;6.63;98.23
69751;BME280;57335;52.288;6.056;2023-02-04T01:03:52;103240.00;;;6.55;97.82
69751;BME280;57335;52.288;6.056;2023-02-04T01:06:18;103243.44;;;6.55;97.97
69751;BME280;57335;52.288;6.056;2023-02-04T01:08:44;103251.03;;;6.58;98.02
69751;BME280;57335;52.288;6.056;2023-02-04T01:11:11;103252.31;;;6.53;97.88
69751;BME280;57335;52.288;6.056;2023-02-04T01:13:37;103250.53;;;6.53;97.83
69751;BME280;57335;52.288;6.056;2023-02-04T01:16:04;103257.91;;;6.59;97.71
69751;BME280;57335;52.288;6.056;2023-02-04T01:18:30;103265.94;;;6.56;97.66
69751;BME280;57335;52.288;6.056;2023-02-04T01:20:59;103272.69;;;6.59;97.53
69751;BME280;57335;52.288;6.056;2023-02-04T01:23:25;103261.09;;;6.52;97.35
69751;BME280;57335;52.288;6.056;2023-02-04T01:25:52;103272.81;;;6.46;97.27
69751;BME280;57335;52.288;6.056;2023-02-04T01:28:18;103268.78;;;6.42;97.50
69751;BME280;57335;52.288;6.056;2023-02-04T01:30:44;103280.75;;;6.45;97.47
69751;BME280;57335;52.288;6.056;2023-02-04T01:33:11;103287.25;;;6.39;97.59
69751;BME280;57335;52.288;6.056;2023-02-04T01:35:37;103303.72;;;6.39;97.29
69751;BME280;57335;52.288;6.056;2023-02-04T01:38:04;103297.22;;;6.34;97.37
69751;BME280;57335;52.288;6.056;2023-02-04T01:40:30;103293.41;;;6.27;97.66
69751;BME280;57335;52.288;6.056;2023-02-04T01:42:57;103310.69;;;6.28;97.43
69751;BME280;57335;52.288;6.056;2023-02-04T01:45:24;103294.81;;;6.19;97.72
69751;BME280;57335;52.288;6.056;2023-02-04T01:47:50;103294.22;;;6.16;97.85
69751;BME280;57335;52.288;6.056;2023-02-04T01:50:17;103307.25;;;6.16;97.85
69751;BME280;57335;52.288;6.056;2023-02-04T01:52:44;103306.63;;;6.12;98.26
69751;BME280;57335;52.288;6.056;2023-02-04T01:55:19;103299.41;;;6.05;98.52
69751;BME280;57335;52.288;6.056;2023-02-04T01:57:49;103313.03;;;6.08;98.90
69751;BME280;57335;52.288;6.056;2023-02-04T02:00:18;103317.50;;;6.06;99.21
69751;BME280;57335;52.288;6.056;2023-02-04T02:02:49;103319.06;;;6.09;99.21
69751;BME280;57335;52.288;6.056;2023-02-04T02:05:18;103306.59;;;6.01;98.97
69751;BME280;57335;52.288;6.056;2023-02-04T02:07:47;103323.53;;;6.07;99.00
69751;BME280;57335;52.288;6.056;2023-02-04T02:10:15;103324.59;;;6.04;99.04
69751;BME280;57335;52.288;6.056;2023-02-04T02:12:42;103320.34;;;6.03;99.34
69751;BME280;57335;52.288;6.056;2023-02-04T02:15:10;103318.78;;;6.01;99.22
69751;BME280;57335;52.288;6.056;2023-02-04T02:17:38;103316.44;;;5.97;99.25
69751;BME280;57335;52.288;6.056;2023-02-04T02:20:06;103312.47;;;5.92;99.40
69751;BME280;57335;52.288;6.056;2023-02-04T02:25:12;103330.69;;;5.92;99.30
69751;BME280;57335;52.288;6.056;2023-02-04T02:27:40;103320.84;;;5.84;99.61
69751;BME280;57335;52.288;6.056;2023-02-04T02:30:08;103324.72;;;5.78;99.64
69751;BME280;57335;52.288;6.056;2023-02-04T02:32:36;103324.13;;;5.75;99.79
69751;BME280;57335;52.288;6.056;2023-02-04T02:35:04;103334.41;;;5.76;99.92
69751;BME280;57335;52.288;6.056;2023-02-04T02:37:31;103325.63;;;5.66;100.00
69751;BME280;57335;52.288;6.056;2023-02-04T02:39:57;103336.03;;;5.66;100.00
69751;BME280;57335;52.288;6.056;2023-02-04T02:42:24;103333.06;;;5.59;100.00
69751;BME280;57335;52.288;6.056;2023-02-04T02:44:50;103337.66;;;5.56;100.00
69751;BME280;57335;52.288;6.056;2023-02-04T02:47:19;103332.78;;;5.51;100.00
69751;BME280;57335;52.288;6.056;2023-02-04T02:49:52;103334.88;;;5.46;100.00
69751;BME280;57335;52.288;6.056;2023-02-04T02:52:19;103327.28;;;5.43;100.00
69751;BME280;57335;52.288;6.056;2023-02-04T02:54:46;103336.88;;;5.43;100.00
69751;BME280;57335;52.288;6.056;2023-02-04T02:57:18;103329.78;;;5.45;100.00
69751;BME280;57335;52.288;6.056;2023-02-04T02:59:46;103336.03;;;5.42;100.00
69751;BME280;57335;52.288;6.056;2023-02-04T03:02:17;103335.94;;;5.44;100.00
69751;BME280;57335;52.288;6.056;2023-02-04T03:04:49;103342.78;;;5.45;100.00
69751;BME280;57335;52.288;6.056;2023-02-04T03:07:17;103336.97;;;5.41;100.00
69751;BME280;57335;52.288;6.056;2023-02-04T03:09:45;103351.31;;;5.47;100.00
69751;BME280;57335;52.288;6.056;2023-02-04T03:12:11;103335.22;;;5.42;100.00
69751;BME280;57335;52.288;6.056;2023-02-04T03:14:38;103342.69;;;5.46;100.00
69751;BME280;57335;52.288;6.056;2023-02-04T03:17:06;103350.16;;;5.51;100.00
69751;BME280;57335;52.288;6.056;2023-02-04T03:19:34;103353.47;;;5.53;100.00
69751;BME280;57335;52.288;6.056;2023-02-04T03:22:02;103351.81;;;5.52;100.00
69751;BME280;57335;52.288;6.056;2023-02-04T03:24:29;103362.72;;;5.57;100.00
69751;BME280;57335;52.288;6.056;2023-02-04T03:26:56;103356.91;;;5.53;100.00
69751;BME280;57335;52.288;6.056;2023-02-04T03:29:22;103363.66;;;5.56;100.00
69751;BME280;57335;52.288;6.056;2023-02-04T03:31:49;103364.59;;;5.55;100.00
69751;BME280;57335;52.288;6.056;2023-02-04T03:34:15;103380.59;;;5.62;100.00
69751;BME280;57335;52.288;6.056;2023-02-04T03:36:42;103369.59;;;5.58;100.00
69751;BME280;57335;52.288;6.056;2023-02-04T03:39:08;103365.44;;;5.55;100.00
69751;BME280;57335;52.288;6.056;2023-02-04T03:41:34;103365.19;;;5.58;100.00
69751;BME280;57335;52.288;6.056;2023-02-04T03:44:01;103374.34;;;5.64;100.00
69751;BME280;57335;52.288;6.056;2023-02-04T03:46:27;103373.38;;;5.65;100.00
69751;BME280;57335;52.288;6.056;2023-02-04T03:48:54;103369.13;;;5.64;100.00
69751;BME280;57335;52.288;6.056;2023-02-04T03:51:20;103364.88;;;5.63;100.00
69751;BME280;57335;52.288;6.056;2023-02-04T03:53:47;103374.09;;;5.67;100.00
69751;BME280;57335;52.288;6.056;2023-02-04T03:56:13;103370.56;;;5.68;100.00
69751;BME280;57335;52.288;6.056;2023-02-04T03:58:39;103373.06;;;5.70;100.00
69751;BME280;57335;52.288;6.056;2023-02-04T04:01:06;103360.38;;;5.65;100.00
69751;BME280;57335;52.288;6.056;2023-02-04T04:03:32;103359.91;;;5.60;100.00
69751;BME280;57335;52.288;6.056;2023-02-04T04:05:59;103353.88;;;5.59;100.00
69751;BME280;57335;52.288;6.056;2023-02-04T04:08:25;103370.56;;;5.68;100.00
69751;BME280;57335;52.288;6.056;2023-02-04T04:10:51;103383.59;;;5.68;100.00
69751;BME280;57335;52.288;6.056;2023-02-04T04:13:17;103377.88;;;5.63;100.00
69751;BME280;57335;52.288;6.056;2023-02-04T04:15:44;103388.78;;;5.68;100.00
69751;BME280;57335;52.288;6.056;2023-02-04T04:18:10;103385.66;;;5.63;100.00
69751;BME280;57335;52.288;6.056;2023-02-04T04:20:37;103393.38;;;5.65;100.00
69751;BME280;57335;52.288;6.056;2023-02-04T04:23:03;103390.16;;;5.61;100.00
69751;BME280;57335;52.288;6.056;2023-02-04T04:25:29;103405.31;;;5.67;100.00
69751;BME280;57335;52.288;6.056;2023-02-04T04:27:56;103385.19;;;5.58;100.00
69751;BME280;57335;52.288;6.056;2023-02-04T04:30:22;103396.81;;;5.65;100.00
69751;BME280;57335;52.288;6.056;2023-02-04T04:32:49;103406.28;;;5.66;100.00
69751;BME280;57335;52.288;6.056;2023-02-04T04:35:15;103397.84;;;5.63;100.00
69751;BME280;57335;52.288;6.056;2023-02-04T04:37:41;103403.16;;;5.61;100.00
69751;BME280;57335;52.288;6.056;2023-02-04T04:40:10;103414.28;;;5.63;100.00
69751;BME280;57335;52.288;6.056;2023-02-04T04:42:37;103411.94;;;5.60;100.00
69751;BME280;57335;52.288;6.056;2023-02-04T04:45:05;103413.41;;;5.51;100.00
69751;BME280;57335;52.288;6.056;2023-02-04T04:47:31;103409.38;;;5.47;100.00
69751;BME280;57335;52.288;6.056;2023-02-04T04:49:58;103427.44;;;5.49;100.00
69751;BME280;57335;52.288;6.056;2023-02-04T04:52:24;103418.63;;;5.38;100.00
69751;BME280;57335;52.288;6.056;2023-02-04T04:54:50;103426.44;;;5.38;100.00
69751;BME280;57335;52.288;6.056;2023-02-04T04:57:17;103434.47;;;5.35;100.00
69751;BME280;57335;52.288;6.056;2023-02-04T04:59:43;103437.16;;;5.34;100.00
69751;BME280;57335;52.288;6.056;2023-02-04T05:02:09;103427.81;;;5.31;100.00
69751;BME280;57335;52.288;6.056;2023-02-04T05:04:36;103435.81;;;5.28;100.00
69751;BME280;57335;52.288;6.056;2023-02-04T05:07:02;103431.97;;;5.21;100.00
69751;BME280;57335;52.288;6.056;2023-02-04T05:09:28;103438.03;;;5.22;100.00
69751;BME280;57335;52.288;6.056;2023-02-04T05:11:55;103442.59;;;5.18;100.00
69751;BME280;57335;52.288;6.056;2023-02-04T05:14:21;103452.28;;;5.16;100.00
69751;BME280;57335;52.288;6.056;2023-02-04T05:16:47;103453.44;;;5.12;100.00
69751;BME280;57335;52.288;6.056;2023-02-04T05:19:13;103447.41;;;5.11;100.00
69751;BME280;57335;52.288;6.056;2023-02-04T05:21:40;103454.75;;;5.05;100.00
69751;BME280;57335;52.288;6.056;2023-02-04T05:24:06;103466.63;;;5.09;100.00
69751;BME280;57335;52.288;6.056;2023-02-04T05:26:32;103452.91;;;5.07;100.00
69751;BME280;57335;52.288;6.056;2023-02-04T05:28:59;103448.75;;;5.04;100.00
69751;BME280;57335;52.288;6.056;2023-02-04T05:31:26;103451.16;;;5.07;100.00
69751;BME280;57335;52.288;6.056;2023-02-04T05:33:52;103454.75;;;5.05;100.00
69751;BME280;57335;52.288;6.056;2023-02-04T05:36:19;103442.91;;;5.00;100.00
69751;BME280;57335;52.288;6.056;2023-02-04T05:38:46;103448.94;;;5.01;100.00
69751;BME280;57335;52.288;6.056;2023-02-04T05:41:12;103456.44;;;5.06;100.00
69751;BME280;57335;52.288;6.056;2023-02-04T05:43:39;103441.16;;;5.01;100.00
69751;BME280;57335;52.288;6.056;2023-02-04T05:46:05;103441.28;;;4.99;100.00
69751;BME280;57335;52.288;6.056;2023-02-04T05:48:31;103458.31;;;5.04;100.00
69751;BME280;57335;52.288;6.056;2023-02-04T05:50:58;103458.41;;;5.02;100.00
69751;BME280;57335;52.288;6.056;2023-02-04T05:53:24;103456.00;;;4.99;100.00
69751;BME280;57335;52.288;6.056;2023-02-04T05:55:51;103456.34;;;4.94;100.00
69751;BME280;57335;52.288;6.056;2023-02-04T05:58:18;103452.50;;;4.87;100.00
69751;BME280;57335;52.288;6.056;2023-02-04T06:00:44;103459.34;;;4.88;100.00
69751;BME280;57335;52.288;6.056;2023-02-04T06:03:11;103472.25;;;4.90;100.00
69751;BME280;57335;52.288;6.056;2023-02-04T06:05:37;103464.97;;;4.82;100.00
69751;BME280;57335;52.288;6.056;2023-02-04T06:08:03;103476.28;;;4.81;100.00
69751;BME280;57335;52.288;6.056;2023-02-04T06:10:30;103473.06;;;4.77;100.00
69751;BME280;57335;52.288;6.056;2023-02-04T06:12:57;103471.63;;;4.73;100.00
69751;BME280;57335;52.288;6.056;2023-02-04T06:15:23;103463.19;;;4.70;100.00
69751;BME280;57335;52.288;6.056;2023-02-04T06:17:49;103473.75;;;4.67;100.00
69751;BME280;57335;52.288;6.056;2023-02-04T06:20:16;103456.22;;;4.57;100.00
69751;BME280;57335;52.288;6.056;2023-02-04T06:22:42;103485.50;;;4.59;100.00
69751;BME280;57335;52.288;6.056;2023-02-04T06:25:09;103493.50;;;4.56;100.00
69751;BME280;57335;52.288;6.056;2023-02-04T06:27:35;103490.38;;;4.51;100.00
69751;BME280;57335;52.288;6.056;2023-02-04T06:30:02;103485.78;;;4.42;100.00
69751;BME280;57335;52.288;6.056;2023-02-04T06:32:28;103496.88;;;4.44;100.00
69751;BME280;57335;52.288;6.056;2023-02-04T06:34:55;103492.50;;;4.32;100.00
69751;BME280;57335;52.288;6.056;2023-02-04T06:37:21;103499.06;;;4.37;100.00
69751;BME280;57335;52.288;6.056;2023-02-04T06:39:49;103499.34;;;4.33;100.00
69751;BME280;57335;52.288;6.056;2023-02-04T06:42:16;103502.16;;;4.30;100.00
69751;BME280;57335;52.288;6.056;2023-02-04T06:44:42;103501.59;;;4.25;100.00
69751;BME280;57335;52.288;6.056;2023-02-04T06:47:08;103514.88;;;4.20;100.00
69751;BME280;57335;52.288;6.056;2023-02-04T06:49:35;103503.34;;;4.11;100.00
69751;BME280;57335;52.288;6.056;2023-02-04T06:52:01;103505.94;;;4.11;100.00
69751;BME280;57335;52.288;6.056;2023-02-04T06:54:27;103501.94;;;4.06;100.00
69751;BME280;57335;52.288;6.056;2023-02-04T06:56:53;103513.16;;;4.06;100.00
69751;BME280;57335;52.288;6.056;2023-02-04T06:59:20;103528.19;;;4.01;100.00
69751;BME280;57335;52.288;6.056;2023-02-04T07:01:46;103518.47;;;3.90;100.00
69751;BME280;57335;52.288;6.056;2023-02-04T07:04:13;103527.94;;;3.91;100.00
69751;BME280;57335;52.288;6.056;2023-02-04T07:06:39;103530.06;;;3.85;100.00
69751;BME280;57335;52.288;6.056;2023-02-04T07:09:05;103536.94;;;3.86;100.00
69751;BME280;57335;52.288;6.056;2023-02-04T07:11:32;103540.63;;;3.82;100.00
69751;BME280;57335;52.288;6.056;2023-02-04T07:13:58;103543.22;;;3.82;100.00
69751;BME280;57335;52.288;6.056;2023-02-04T07:16:24;103547.31;;;3.86;100.00
69751;BME280;57335;52.288;6.056;2023-02-04T07:18:51;103548.13;;;3.86;100.00
69751;BME280;57335;52.288;6.056;2023-02-04T07:21:17;103538.03;;;3.82;100.00
69751;BME280;57335;52.288;6.056;2023-02-04T07:23:43;103545.53;;;3.86;100.00
69751;BME280;57335;52.288;6.056;2023-02-04T07:26:09;103540.63;;;3.82;100.00
69751;BME280;57335;52.288;6.056;2023-02-04T07:28:36;103535.25;;;3.85;100.00
69751;BME280;57335;52.288;6.056;2023-02-04T07:31:02;103553.16;;;3.89;100.00
69751;BME280;57335;52.288;6.056;2023-02-04T07:33:29;103554.78;;;3.90;100.00
69751;BME280;57335;52.288;6.056;2023-02-04T07:35:55;103558.94;;;3.93;100.00
69751;BME280;57335;52.288;6.056;2023-02-04T07:38:21;103552.19;;;3.90;100.00
69751;BME280;57335;52.288;6.056;2023-02-04T07:40:48;103571.56;;;3.99;100.00
69751;BME280;57335;52.288;6.056;2023-02-04T07:43:14;103575.72;;;4.02;100.00
69751;BME280;57335;52.288;6.056;2023-02-04T07:45:40;103579.88;;;4.04;100.00
69751;BME280;57335;52.288;6.056;2023-02-04T07:48:07;103584.03;;;4.07;100.00
69751;BME280;57335;52.288;6.056;2023-02-04T07:50:33;103588.25;;;4.09;100.00
69751;BME280;57335;52.288;6.056;2023-02-04T07:53:00;103582.94;;;4.11;100.00
69751;BME280;57335;52.288;6.056;2023-02-04T07:55:26;103601.56;;;4.17;100.00
69751;BME280;57335;52.288;6.056;2023-02-04T07:57:53;103595.56;;;4.17;100.00
69751;BME280;57335;52.288;6.056;2023-02-04T08:00:20;103602.75;;;4.26;100.00
69751;BME280;57335;52.288;6.056;2023-02-04T08:02:46;103589.03;;;4.24;100.00
69751;BME280;57335;52.288;6.056;2023-02-04T08:05:13;103600.22;;;4.39;100.00
69751;BME280;57335;52.288;6.056;2023-02-04T08:07:39;103614.81;;;4.54;100.00
69751;BME280;57335;52.288;6.056;2023-02-04T08:10:06;103613.31;;;4.65;100.00
69751;BME280;57335;52.288;6.056;2023-02-04T08:12:33;103620.50;;;4.74;100.00
69751;BME280;57335;52.288;6.056;2023-02-04T08:14:59;103618.06;;;4.85;100.00
69751;BME280;57335;52.288;6.056;2023-02-04T08:17:26;103617.66;;;4.91;100.00
69751;BME280;57335;52.288;6.056;2023-02-04T08:19:53;103612.81;;;4.99;100.00
69751;BME280;57335;52.288;6.056;2023-02-04T08:22:19;103623.94;;;5.14;100.00
69751;BME280;57335;52.288;6.056;2023-02-04T08:24:45;103636.13;;;5.27;100.00
69751;BME280;57335;52.288;6.056;2023-02-04T08:27:12;103639.69;;;5.38;100.00
69751;BME280;57335;52.288;6.056;2023-02-04T08:29:38;103639.00;;;5.49;100.00
69751;BME280;57335;52.288;6.056;2023-02-04T08:32:05;103633.16;;;5.58;100.00
69751;BME280;57335;52.288;6.056;2023-02-04T08:34:31;103637.63;;;5.69;100.00
69751;BME280;57335;52.288;6.056;2023-02-04T08:36:58;103639.81;;;5.75;100.00
69751;BME280;57335;52.288;6.056;2023-02-04T08:39:24;103646.78;;;5.88;100.00
69751;BME280;57335;52.288;6.056;2023-02-04T08:41:50;103640.44;;;5.92;100.00
69751;BME280;57335;52.288;6.056;2023-02-04T08:44:17;103653.25;;;6.08;100.00
69751;BME280;57335;52.288;6.056;2023-02-04T08:46:43;103646.78;;;6.13;100.00
69751;BME280;57335;52.288;6.056;2023-02-04T08:49:10;103649.44;;;6.25;100.00
69751;BME280;57335;52.288;6.056;2023-02-04T08:51:36;103648.81;;;6.34;100.00
69751;BME280;57335;52.288;6.056;2023-02-04T08:54:02;103652.31;;;6.46;100.00
69751;BME280;57335;52.288;6.056;2023-02-04T08:56:29;103653.78;;;6.50;100.00
69751;BME280;57335;52.288;6.056;2023-02-04T08:58:55;103645.00;;;6.51;100.00
69751;BME280;57335;52.288;6.056;2023-02-04T09:01:22;103653.94;;;6.59;100.00
69751;BME280;57335;52.288;6.056;2023-02-04T09:03:48;103648.06;;;6.69;100.00
69751;BME280;57335;52.288;6.056;2023-02-04T09:06:14;103650.31;;;6.73;100.00
69751;BME280;57335;52.288;6.056;2023-02-04T09:08:41;103647.16;;;6.81;100.00
69751;BME280;57335;52.288;6.056;2023-02-04T09:11:07;103652.78;;;6.88;100.00
69751;BME280;57335;52.288;6.056;2023-02-04T09:13:33;103652.91;;;6.97;100.00
69751;BME280;57335;52.288;6.056;2023-02-04T09:16:00;103654.38;;;7.02;100.00
69751;BME280;57335;52.288;6.056;2023-02-04T09:18:26;103654.75;;;7.08;100.00
69751;BME280;57335;52.288;6.056;2023-02-04T09:20:53;103662.03;;;7.27;100.00
69751;BME280;57335;52.288;6.056;2023-02-04T09:23:19;103663.97;;;7.36;100.00
69751;BME280;57335;52.288;6.056;2023-02-04T09:25:46;103669.94;;;7.50;100.00
69751;BME280;57335;52.288;6.056;2023-02-04T09:28:13;103670.97;;;7.47;100.00
69751;BME280;57335;52.288;6.056;2023-02-04T09:30:41;103669.94;;;7.50;100.00
69751;BME280;57335;52.288;6.056;2023-02-04T09:33:09;103675.25;;;7.48;100.00
69751;BME280;57335;52.288;6.056;2023-02-04T09:35:36;103666.97;;;7.54;100.00
69751;BME280;57335;52.288;6.056;2023-02-04T09:38:03;103670.91;;;7.60;100.00
69751;BME280;57335;52.288;6.056;2023-02-04T09:40:31;103673.97;;;7.65;100.00
69751;BME280;57335;52.288;6.056;2023-02-04T09:42:59;103679.13;;;7.78;100.00
69751;BME280;57335;52.288;6.056;2023-02-04T09:45:33;103678.06;;;7.92;100.00
69751;BME280;57335;52.288;6.056;2023-02-04T09:48:02;103675.44;;;8.03;100.00
69751;BME280;57335;52.288;6.056;2023-02-04T09:50:30;103672.22;;;8.22;100.00
69751;BME280;57335;52.288;6.056;2023-02-04T09:53:00;103670.75;;;8.52;100.00
69751;BME280;57335;52.288;6.056;2023-02-04T09:55:37;103678.56;;;8.74;95.83
69751;BME280;57335;52.288;6.056;2023-02-04T09:58:29;103690.25;;;8.91;96.99
69751;BME280;57335;52.288;6.056;2023-02-04T10:01:05;103685.59;;;9.06;95.42
69751;BME280;57335;52.288;6.056;2023-02-04T10:03:34;103685.31;;;9.09;93.60
69751;BME280;57335;52.288;6.056;2023-02-04T10:06:01;103701.28;;;9.27;96.06
69751;BME280;57335;52.288;6.056;2023-02-04T10:08:28;103681.94;;;9.39;94.86
69751;BME280;57335;52.288;6.056;2023-02-04T10:10:56;103700.00;;;9.64;93.60
69751;BME280;57335;52.288;6.056;2023-02-04T10:13:30;103709.06;;;9.81;92.54
69751;BME280;57335;52.288;6.056;2023-02-04T10:15:58;103707.56;;;9.88;92.33
69751;BME280;57335;52.288;6.056;2023-02-04T10:18:29;103712.69;;;9.89;89.60
69751;BME280;57335;52.288;6.056;2023-02-04T10:21:20;103715.44;;;9.88;91.47
69751;BME280;57335;52.288;6.056;2023-02-04T10:23:49;103709.06;;;9.81;89.31
69751;BME280;57335;52.288;6.056;2023-02-04T10:26:16;103712.81;;;9.88;91.22
69751;BME280;57335;52.288;6.056;2023-02-04T10:28:43;103707.16;;;9.83;90.27
69751;BME280;57335;52.288;6.056;2023-02-04T10:31:27;103709.38;;;9.87;91.40
69751;BME280;57335;52.288;6.056;2023-02-04T10:36:40;103697.97;;;9.88;88.51
69751;BME280;57335;52.288;6.056;2023-02-04T10:39:22;103721.94;;;9.93;88.66
69751;BME280;57335;52.288;6.056;2023-02-04T10:41:50;103718.22;;;9.86;90.56
69751;BME280;57335;52.288;6.056;2023-02-04T10:44:24;103712.13;;;9.86;91.52
69751;BME280;57335;52.288;6.056;2023-02-04T10:47:15;103712.44;;;9.92;91.04
69751;BME280;57335;52.288;6.056;2023-02-04T10:52:35;103718.59;;;10.12;88.48
69751;BME280;57335;52.288;6.056;2023-02-04T10:55:05;103719.72;;;10.19;87.84
69751;BME280;57335;52.288;6.056;2023-02-04T10:57:34;103718.50;;;10.24;87.02
69751;BME280;57335;52.288;6.056;2023-02-04T11:00:04;103715.88;;;10.24;88.20
69751;BME280;57335;52.288;6.056;2023-02-04T11:05:31;103722.19;;;10.52;87.46
69751;BME280;57335;52.288;6.056;2023-02-04T11:07:59;103716.41;;;10.58;87.84
69751;BME280;57335;52.288;6.056;2023-02-04T11:10:32;103726.09;;;10.67;86.85
69751;BME280;57335;52.288;6.056;2023-02-04T11:13:03;103730.66;;;10.75;85.97
69751;BME280;57335;52.288;6.056;2023-02-04T11:15:47;103716.44;;;10.77;86.80
69751;BME280;57335;52.288;6.056;2023-02-04T11:20:50;103715.22;;;10.91;85.28
69751;BME280;57335;52.288;6.056;2023-02-04T11:26:06;103717.72;;;11.03;85.05
69751;BME280;57335;52.288;6.056;2023-02-04T11:33:46;103708.31;;;10.71;80.60
69751;BME280;57335;52.288;6.056;2023-02-04T11:36:14;103717.25;;;10.58;81.05
69751;BME280;57335;52.288;6.056;2023-02-04T11:38:46;103720.41;;;10.52;84.33
69751;BME280;57335;52.288;6.056;2023-02-04T11:41:26;103717.09;;;10.60;86.45
69751;BME280;57335;52.288;6.056;2023-02-04T11:43:54;103727.34;;;10.63;82.33
69751;BME280;57335;52.288;6.056;2023-02-04T11:46:22;103719.03;;;10.58;83.40
69751;BME280;57335;52.288;6.056;2023-02-04T11:48:53;103714.34;;;10.62;83.02
69751;BME280;57335;52.288;6.056;2023-02-04T11:51:24;103718.22;;;10.57;80.82
69751;BME280;57335;52.288;6.056;2023-02-04T11:53:53;103725.81;;;10.61;83.21
69751;BME280;57335;52.288;6.056;2023-02-04T11:56:20;103722.50;;;10.58;82.11
69751;BME280;57335;52.288;6.056;2023-02-04T11:58:48;103712.13;;;10.47;80.18
69751;BME280;57335;52.288;6.056;2023-02-04T12:01:20;103715.88;;;10.54;82.21
69751;BME280;57335;52.288;6.056;2023-02-04T12:03:48;103714.63;;;10.58;82.87
69751;BME280;57335;52.288;6.056;2023-02-04T12:06:23;103720.19;;;10.75;82.56
69751;BME280;57335;52.288;6.056;2023-02-04T12:08:50;103712.72;;;10.80;79.79
69751;BME280;57335;52.288;6.056;2023-02-04T12:11:25;103704.47;;;10.94;80.62
69751;BME280;57335;52.288;6.056;2023-02-04T12:13:53;103709.84;;;11.03;79.22
69751;BME280;57335;52.288;6.056;2023-02-04T12:16:20;103708.19;;;11.11;80.07
69751;BME280;57335;52.288;6.056;2023-02-04T12:18:46;103709.56;;;11.25;79.49
69751;BME280;57335;52.288;6.056;2023-02-04T12:21:13;103708.56;;;11.36;81.41
69751;BME280;57335;52.288;6.056;2023-02-04T12:23:40;103706.63;;;11.48;78.89
69751;BME280;57335;52.288;6.056;2023-02-04T12:26:07;103709.19;;;11.67;77.64
69751;BME280;57335;52.288;6.056;2023-02-04T12:28:34;103696.84;;;11.77;78.49
69751;BME280;57335;52.288;6.056;2023-02-04T12:31:00;103704.44;;;11.90;78.58
69751;BME280;57335;52.288;6.056;2023-02-04T12:33:27;103714.06;;;12.09;77.18
69751;BME280;57335;52.288;6.056;2023-02-04T12:35:53;103693.47;;;12.05;76.08
69751;BME280;57335;52.288;6.056;2023-02-04T12:38:20;103708.34;;;12.14;74.81
69751;BME280;57335;52.288;6.056;2023-02-04T12:40:46;103710.03;;;12.15;75.24
69751;BME280;57335;52.288;6.056;2023-02-04T12:43:13;103706.56;;;12.14;75.11
69751;BME280;57335;52.288;6.056;2023-02-04T12:45:39;103708.91;;;12.17;75.27
69751;BME280;57335;52.288;6.056;2023-02-04T12:48:05;103698.38;;;12.17;74.12
69751;BME280;57335;52.288;6.056;2023-02-04T12:50:32;103710.72;;;12.17;69.66
69751;BME280;57335;52.288;6.056;2023-02-04T12:52:58;103711.28;;;12.11;71.63
69751;BME280;57335;52.288;6.056;2023-02-04T12:55:26;103717.53;;;12.00;70.90
69751;BME280;57335;52.288;6.056;2023-02-04T12:57:53;103706.38;;;11.78;69.92
69751;BME280;57335;52.288;6.056;2023-02-04T13:00:20;103712.09;;;11.64;72.48
69751;BME280;57335;52.288;6.056;2023-02-04T13:02:47;103708.97;;;11.51;71.36
69751;BME280;57335;52.288;6.056;2023-02-04T13:05:14;103698.47;;;11.41;73.92
69751;BME280;57335;52.288;6.056;2023-02-04T13:07:41;103703.88;;;11.40;73.61
69751;BME280;57335;52.288;6.056;2023-02-04T13:10:09;103705.81;;;11.37;75.07
69751;BME280;57335;52.288;6.056;2023-02-04T13:12:36;103697.50;;;11.32;74.01
69751;BME280;57335;52.288;6.056;2023-02-04T13:15:03;103693.13;;;11.23;75.20